sensor_id;sensor_type;location;lat;lon;timestamp;pressure;altitude;pressure_sealevel;temperature;humidity
10145;BME280;5113;41.822;23.564;2022-11-20T00:00:12;-11385.81;;;16.31;100.00
10145;BME280;5113;41.822;23.564;2022-11-20T00:03:19;-11381.31;;;16.14;100.00
10145;BME280;5113;41.822;23.564;2022-11-20T00:06:26;-11380.59;;;16.12;100.00
10145;BME280;5113;41.822;23.564;2022-11-20T00:09:33;-11382.00;;;16.17;100.00
10145;BME280;5113;41.822;23.564;2022-11-20T00:12:39;-11383.28;;;16.22;100.00
10145;BME280;5113;41.822;23.564;2022-11-20T00:15:47;-11385.81;;;16.31;100.00
10145;BME280;5113;41.822;23.564;2022-11-20T00:18:54;-11385.94;;;16.31;100.00
10145;BME280;5113;41.822;23.564;2022-11-20T00:22:00;-11387.91;;;16.38;100.00
10145;BME280;5113;41.822;23.564;2022-11-20T00:25:07;-11386.50;;;16.33;100.00
10145;BME280;5113;41.822;23.564;2022-11-20T00:28:13;-11387.34;;;16.36;100.00
10145;BME280;5113;41.822;23.564;2022-11-20T00:31:21;-11389.03;;;16.42;100.00
10145;BME280;5113;41.822;23.564;2022-11-20T00:34:27;-11382.28;;;16.18;100.00
10145;BME280;5113;41.822;23.564;2022-11-20T00:37:33;-11384.13;;;16.25;100.00
10145;BME280;5113;41.822;23.564;2022-11-20T00:40:40;-11377.91;;;16.02;100.00
10145;BME280;5113;41.822;23.564;2022-11-20T00:43:46;-11383.56;;;16.23;100.00
10145;BME280;5113;41.822;23.564;2022-11-20T00:46:53;-11383.00;;;16.21;99.45
10145;BME280;5113;41.822;23.564;2022-11-20T00:49:59;-11387.34;;;16.36;98.10
10145;BME280;5113;41.822;23.564;2022-11-20T00:53:05;-11384.53;;;16.26;98.72
10145;BME280;5113;41.822;23.564;2022-11-20T00:56:13;-11381.59;;;16.15;98.94
10145;BME280;5113;41.822;23.564;2022-11-20T00:59:20;-11386.22;;;16.32;97.05
10145;BME280;5113;41.822;23.564;2022-11-20T01:02:27;-11385.09;;;16.28;97.61
10145;BME280;5113;41.822;23.564;2022-11-20T01:05:34;-11383.41;;;16.22;99.13
10145;BME280;5113;41.822;23.564;2022-11-20T01:08:41;-11383.84;;;16.24;98.34
10145;BME280;5113;41.822;23.564;2022-11-20T01:11:48;-11387.91;;;16.38;96.77
10145;BME280;5113;41.822;23.564;2022-11-20T01:14:54;-11383.69;;;16.23;99.72
10145;BME280;5113;41.822;23.564;2022-11-20T01:18:02;-11379.31;;;16.07;100.00
10145;BME280;5113;41.822;23.564;2022-11-20T01:21:11;-11380.59;;;16.12;100.00
10145;BME280;5113;41.822;23.564;2022-11-20T01:24:20;-11381.72;;;16.16;100.00
10145;BME280;5113;41.822;23.564;2022-11-20T01:27:26;-11378.63;;;16.05;100.00
10145;BME280;5113;41.822;23.564;2022-11-20T01:30:32;-11377.22;;;16.00;100.00
10145;BME280;5113;41.822;23.564;2022-11-20T01:33:41;-11377.78;;;16.02;100.00
10145;BME280;5113;41.822;23.564;2022-11-20T01:36:48;-11376.66;;;15.98;100.00
10145;BME280;5113;41.822;23.564;2022-11-20T01:39:55;-11377.22;;;16.00;100.00
10145;BME280;5113;41.822;23.564;2022-11-20T01:43:12;-11377.50;;;16.01;100.00
10145;BME280;5113;41.822;23.564;2022-11-20T01:46:30;-11377.50;;;16.01;100.00
10145;BME280;5113;41.822;23.564;2022-11-20T01:49:40;-11380.19;;;16.10;100.00
10145;BME280;5113;41.822;23.564;2022-11-20T01:52:50;-11380.88;;;16.13;100.00
10145;BME280;5113;41.822;23.564;2022-11-20T01:56:00;-11384.53;;;16.26;98.47
10145;BME280;5113;41.822;23.564;2022-11-20T01:59:08;-11380.88;;;16.13;99.01
10145;BME280;5113;41.822;23.564;2022-11-20T02:02:16;-11382.84;;;16.20;98.84
10145;BME280;5113;41.822;23.564;2022-11-20T02:05:29;-11383.13;;;16.21;97.50
10145;BME280;5113;41.822;23.564;2022-11-20T02:08:38;-11381.59;;;16.15;97.80
10145;BME280;5113;41.822;23.564;2022-11-20T02:11:37;-11379.19;;;16.07;98.25
10145;BME280;5113;41.822;23.564;2022-11-20T02:14:43;-11384.81;;;16.27;94.80
10145;BME280;5113;41.822;23.564;2022-11-20T02:17:48;-11378.75;;;16.05;97.57
10145;BME280;5113;41.822;23.564;2022-11-20T02:21:06;-11385.38;;;16.29;93.93
10145;BME280;5113;41.822;23.564;2022-11-20T02:24:15;-11376.94;;;15.99;97.94
10145;BME280;5113;41.822;23.564;2022-11-20T02:27:23;-11379.19;;;16.07;97.19
10145;BME280;5113;41.822;23.564;2022-11-20T02:30:29;-11377.22;;;16.00;96.91
10145;BME280;5113;41.822;23.564;2022-11-20T02:33:36;-11380.19;;;16.10;96.03
10145;BME280;5113;41.822;23.564;2022-11-20T02:36:42;-11380.19;;;16.10;96.27
10145;BME280;5113;41.822;23.564;2022-11-20T02:39:51;-11382.72;;;16.19;95.62
10145;BME280;5113;41.822;23.564;2022-11-20T02:42:58;-11375.66;;;15.94;98.18
10145;BME280;5113;41.822;23.564;2022-11-20T02:46:06;-11373.56;;;15.87;99.91
10145;BME280;5113;41.822;23.564;2022-11-20T02:49:13;-11370.59;;;15.76;100.00
10145;BME280;5113;41.822;23.564;2022-11-20T02:52:19;-11368.19;;;15.67;100.00
10145;BME280;5113;41.822;23.564;2022-11-20T02:55:27;-11370.72;;;15.76;100.00
10145;BME280;5113;41.822;23.564;2022-11-20T02:58:33;-11366.22;;;15.60;100.00
10145;BME280;5113;41.822;23.564;2022-11-20T03:01:39;-11368.19;;;15.67;100.00
10145;BME280;5113;41.822;23.564;2022-11-20T03:04:45;-11368.75;;;15.69;100.00
10145;BME280;5113;41.822;23.564;2022-11-20T03:07:51;-11367.78;;;15.66;100.00
10145;BME280;5113;41.822;23.564;2022-11-20T03:11:04;-11367.34;;;15.64;100.00
10145;BME280;5113;41.822;23.564;2022-11-20T03:14:10;-11367.22;;;15.64;100.00
10145;BME280;5113;41.822;23.564;2022-11-20T03:17:17;-11371.84;;;15.80;100.00
10145;BME280;5113;41.822;23.564;2022-11-20T03:20:23;-11372.16;;;15.81;100.00
10145;BME280;5113;41.822;23.564;2022-11-20T03:23:30;-11372.72;;;15.83;100.00
10145;BME280;5113;41.822;23.564;2022-11-20T03:26:39;-11372.16;;;15.81;100.00
10145;BME280;5113;41.822;23.564;2022-11-20T03:29:45;-11364.53;;;15.54;100.00
10145;BME280;5113;41.822;23.564;2022-11-20T03:32:52;-11367.22;;;15.64;100.00
10145;BME280;5113;41.822;23.564;2022-11-20T03:36:01;-11368.47;;;15.68;100.00
10145;BME280;5113;41.822;23.564;2022-11-20T03:39:08;-11369.59;;;15.72;100.00
10145;BME280;5113;41.822;23.564;2022-11-20T03:42:16;-11371.72;;;15.80;100.00
10145;BME280;5113;41.822;23.564;2022-11-20T03:45:39;-11370.72;;;15.76;100.00
10145;BME280;5113;41.822;23.564;2022-11-20T03:48:46;-11365.94;;;15.59;100.00
10145;BME280;5113;41.822;23.564;2022-11-20T03:51:55;-11368.91;;;15.70;100.00
10145;BME280;5113;41.822;23.564;2022-11-20T03:55:02;-11368.63;;;15.69;100.00
10145;BME280;5113;41.822;23.564;2022-11-20T03:58:10;-11363.41;;;15.50;100.00
10145;BME280;5113;41.822;23.564;2022-11-20T04:01:19;-11362.56;;;15.47;100.00
10145;BME280;5113;41.822;23.564;2022-11-20T04:04:26;-11361.72;;;15.44;100.00
10145;BME280;5113;41.822;23.564;2022-11-20T04:07:34;-11362.00;;;15.45;100.00
10145;BME280;5113;41.822;23.564;2022-11-20T04:10:40;-11360.88;;;15.41;100.00
10145;BME280;5113;41.822;23.564;2022-11-20T04:13:50;-11362.00;;;15.45;100.00
10145;BME280;5113;41.822;23.564;2022-11-20T04:16:56;-11362.28;;;15.46;100.00
10145;BME280;5113;41.822;23.564;2022-11-20T04:20:03;-11357.22;;;15.28;100.00
10145;BME280;5113;41.822;23.564;2022-11-20T04:23:10;-11361.84;;;15.44;100.00
10145;BME280;5113;41.822;23.564;2022-11-20T04:26:16;-11360.03;;;15.38;100.00
10145;BME280;5113;41.822;23.564;2022-11-20T04:29:24;-11361.28;;;15.42;100.00
10145;BME280;5113;41.822;23.564;2022-11-20T04:32:30;-11362.00;;;15.45;100.00
10145;BME280;5113;41.822;23.564;2022-11-20T04:35:36;-11358.63;;;15.33;100.00
10145;BME280;5113;41.822;23.564;2022-11-20T04:38:43;-11362.13;;;15.45;100.00
10145;BME280;5113;41.822;23.564;2022-11-20T04:41:49;-11359.47;;;15.36;100.00
10145;BME280;5113;41.822;23.564;2022-11-20T04:45:17;-11359.47;;;15.36;100.00
10145;BME280;5113;41.822;23.564;2022-11-20T04:48:25;-11360.31;;;15.39;100.00
10145;BME280;5113;41.822;23.564;2022-11-20T04:51:31;-11360.03;;;15.38;100.00
10145;BME280;5113;41.822;23.564;2022-11-20T04:54:37;-11359.59;;;15.36;100.00
10145;BME280;5113;41.822;23.564;2022-11-20T04:57:43;-11357.63;;;15.29;100.00
10145;BME280;5113;41.822;23.564;2022-11-20T05:00:51;-11363.41;;;15.50;100.00
10145;BME280;5113;41.822;23.564;2022-11-20T05:03:57;-11364.97;;;15.56;100.00
10145;BME280;5113;41.822;23.564;2022-11-20T05:07:04;-11359.75;;;15.37;100.00
10145;BME280;5113;41.822;23.564;2022-11-20T05:10:10;-11357.63;;;15.29;100.00
10145;BME280;5113;41.822;23.564;2022-11-20T05:13:16;-11355.22;;;15.20;100.00
10145;BME280;5113;41.822;23.564;2022-11-20T05:16:25;-11356.66;;;15.26;100.00
10145;BME280;5113;41.822;23.564;2022-11-20T05:19:31;-11353.81;;;15.15;100.00
10145;BME280;5113;41.822;23.564;2022-11-20T05:22:37;-11353.13;;;15.13;100.00
10145;BME280;5113;41.822;23.564;2022-11-20T05:25:43;-11355.50;;;15.22;100.00
10145;BME280;5113;41.822;23.564;2022-11-20T05:28:50;-11355.38;;;15.21;100.00
10145;BME280;5113;41.822;23.564;2022-11-20T05:31:58;-11354.53;;;15.18;100.00
10145;BME280;5113;41.822;23.564;2022-11-20T05:35:05;-11354.81;;;15.19;100.00
10145;BME280;5113;41.822;23.564;2022-11-20T05:38:11;-11354.09;;;15.16;100.00
10145;BME280;5113;41.822;23.564;2022-11-20T05:41:19;-11353.81;;;15.15;100.00
10145;BME280;5113;41.822;23.564;2022-11-20T05:44:25;-11355.78;;;15.23;100.00
10145;BME280;5113;41.822;23.564;2022-11-20T05:47:34;-11354.09;;;15.16;100.00
10145;BME280;5113;41.822;23.564;2022-11-20T05:50:40;-11356.94;;;15.27;100.00
10145;BME280;5113;41.822;23.564;2022-11-20T05:53:46;-11357.78;;;15.30;100.00
10145;BME280;5113;41.822;23.564;2022-11-20T05:56:53;-11356.94;;;15.27;100.00
10145;BME280;5113;41.822;23.564;2022-11-20T05:59:59;-11361.84;;;15.44;100.00
10145;BME280;5113;41.822;23.564;2022-11-20T06:03:06;-11355.22;;;15.20;100.00
10145;BME280;5113;41.822;23.564;2022-11-20T06:06:14;-11355.22;;;15.20;100.00
10145;BME280;5113;41.822;23.564;2022-11-20T06:09:20;-11361.44;;;15.43;100.00
10145;BME280;5113;41.822;23.564;2022-11-20T06:12:27;-11360.72;;;15.40;100.00
10145;BME280;5113;41.822;23.564;2022-11-20T06:15:33;-11358.63;;;15.33;100.00
10145;BME280;5113;41.822;23.564;2022-11-20T06:18:40;-11359.87;;;15.37;100.00
10145;BME280;5113;41.822;23.564;2022-11-20T06:21:47;-11362.28;;;15.46;100.00
10145;BME280;5113;41.822;23.564;2022-11-20T06:24:53;-11358.63;;;15.33;100.00
10145;BME280;5113;41.822;23.564;2022-11-20T06:28:00;-11361.72;;;15.44;100.00
10145;BME280;5113;41.822;23.564;2022-11-20T06:31:06;-11358.91;;;15.34;100.00
10145;BME280;5113;41.822;23.564;2022-11-20T06:34:14;-11361.44;;;15.43;100.00
10145;BME280;5113;41.822;23.564;2022-11-20T06:37:20;-11361.16;;;15.42;100.00
10145;BME280;5113;41.822;23.564;2022-11-20T06:40:27;-11361.84;;;15.44;100.00
10145;BME280;5113;41.822;23.564;2022-11-20T06:43:33;-11359.03;;;15.34;100.00
10145;BME280;5113;41.822;23.564;2022-11-20T06:46:39;-11364.09;;;15.52;100.00
10145;BME280;5113;41.822;23.564;2022-11-20T06:49:46;-11363.97;;;15.52;100.00
10145;BME280;5113;41.822;23.564;2022-11-20T06:52:52;-11363.69;;;15.51;100.00
10145;BME280;5113;41.822;23.564;2022-11-20T06:55:59;-11366.50;;;15.61;100.00
10145;BME280;5113;41.822;23.564;2022-11-20T06:59:05;-11365.81;;;15.59;100.00
10145;BME280;5113;41.822;23.564;2022-11-20T07:02:11;-11367.78;;;15.66;100.00
10145;BME280;5113;41.822;23.564;2022-11-20T07:05:19;-11367.06;;;15.63;100.00
10145;BME280;5113;41.822;23.564;2022-11-20T07:08:25;-11363.97;;;15.52;100.00
10145;BME280;5113;41.822;23.564;2022-11-20T07:11:31;-11367.63;;;15.65;100.00
10145;BME280;5113;41.822;23.564;2022-11-20T07:14:37;-11366.22;;;15.60;100.00
10145;BME280;5113;41.822;23.564;2022-11-20T07:17:44;-11366.22;;;15.60;100.00
10145;BME280;5113;41.822;23.564;2022-11-20T07:20:51;-11368.34;;;15.68;100.00
10145;BME280;5113;41.822;23.564;2022-11-20T07:23:58;-11366.78;;;15.62;100.00
10145;BME280;5113;41.822;23.564;2022-11-20T07:27:04;-11368.63;;;15.69;100.00
10145;BME280;5113;41.822;23.564;2022-11-20T07:30:12;-11362.84;;;15.48;100.00
10145;BME280;5113;41.822;23.564;2022-11-20T07:33:19;-11365.66;;;15.58;100.00
10145;BME280;5113;41.822;23.564;2022-11-20T07:36:27;-11364.81;;;15.55;100.00
10145;BME280;5113;41.822;23.564;2022-11-20T07:39:33;-11374.69;;;15.91;100.00
10145;BME280;5113;41.822;23.564;2022-11-20T07:42:47;-11375.53;;;15.94;100.00
10145;BME280;5113;41.822;23.564;2022-11-20T07:45:55;-11369.88;;;15.73;100.00
10145;BME280;5113;41.822;23.564;2022-11-20T07:49:01;-11373.84;;;15.88;100.00
10145;BME280;5113;41.822;23.564;2022-11-20T07:52:09;-11370.59;;;15.76;100.00
10145;BME280;5113;41.822;23.564;2022-11-20T07:55:15;-11371.28;;;15.78;100.00
10145;BME280;5113;41.822;23.564;2022-11-20T07:58:21;-11367.34;;;15.64;100.00
10145;BME280;5113;41.822;23.564;2022-11-20T08:01:28;-11369.59;;;15.72;100.00
10145;BME280;5113;41.822;23.564;2022-11-20T08:04:34;-11367.91;;;15.66;100.00
10145;BME280;5113;41.822;23.564;2022-11-20T08:07:42;-11370.44;;;15.75;100.00
10145;BME280;5113;41.822;23.564;2022-11-20T08:10:49;-11370.44;;;15.75;100.00
10145;BME280;5113;41.822;23.564;2022-11-20T08:13:55;-11371.00;;;15.77;100.00
10145;BME280;5113;41.822;23.564;2022-11-20T08:17:18;-11373.00;;;15.84;100.00
10145;BME280;5113;41.822;23.564;2022-11-20T08:20:25;-11379.91;;;16.09;100.00
10145;BME280;5113;41.822;23.564;2022-11-20T08:23:33;-11377.22;;;16.00;100.00
10145;BME280;5113;41.822;23.564;2022-11-20T08:26:40;-11374.69;;;15.91;100.00
10145;BME280;5113;41.822;23.564;2022-11-20T08:29:46;-11379.91;;;16.09;100.00
10145;BME280;5113;41.822;23.564;2022-11-20T08:32:53;-11380.31;;;16.11;100.00
10145;BME280;5113;41.822;23.564;2022-11-20T08:36:00;-11376.38;;;15.97;100.00
10145;BME280;5113;41.822;23.564;2022-11-20T08:39:08;-11377.22;;;16.00;100.00
10145;BME280;5113;41.822;23.564;2022-11-20T08:42:16;-11376.66;;;15.98;100.00
10145;BME280;5113;41.822;23.564;2022-11-20T08:45:23;-11368.34;;;15.68;100.00
10145;BME280;5113;41.822;23.564;2022-11-20T08:48:37;-11373.28;;;15.85;100.00
10145;BME280;5113;41.822;23.564;2022-11-20T08:51:43;-11377.34;;;16.00;100.00
10145;BME280;5113;41.822;23.564;2022-11-20T08:54:51;-11384.13;;;16.25;100.00
10145;BME280;5113;41.822;23.564;2022-11-20T08:57:57;-11378.63;;;16.05;100.00
10145;BME280;5113;41.822;23.564;2022-11-20T09:01:04;-11373.84;;;15.88;100.00
10145;BME280;5113;41.822;23.564;2022-11-20T09:04:11;-11371.84;;;15.80;100.00
10145;BME280;5113;41.822;23.564;2022-11-20T09:07:19;-11373.56;;;15.87;100.00
10145;BME280;5113;41.822;23.564;2022-11-20T09:10:27;-11372.84;;;15.84;100.00
10145;BME280;5113;41.822;23.564;2022-11-20T09:13:35;-11373.00;;;15.84;100.00
10145;BME280;5113;41.822;23.564;2022-11-20T09:16:41;-11377.22;;;16.00;100.00
10145;BME280;5113;41.822;23.564;2022-11-20T09:19:48;-11372.16;;;15.81;100.00
10145;BME280;5113;41.822;23.564;2022-11-20T09:22:54;-11373.41;;;15.86;100.00
10145;BME280;5113;41.822;23.564;2022-11-20T09:26:03;-11374.69;;;15.91;100.00
10145;BME280;5113;41.822;23.564;2022-11-20T09:29:10;-11373.00;;;15.84;100.00
10145;BME280;5113;41.822;23.564;2022-11-20T09:32:16;-11376.09;;;15.96;100.00
10145;BME280;5113;41.822;23.564;2022-11-20T09:35:23;-11373.13;;;15.85;100.00
10145;BME280;5113;41.822;23.564;2022-11-20T09:38:29;-11374.97;;;15.92;100.00
10145;BME280;5113;41.822;23.564;2022-11-20T09:41:49;-11380.47;;;16.11;100.00
10145;BME280;5113;41.822;23.564;2022-11-20T09:45:09;-11383.13;;;16.21;100.00
10145;BME280;5113;41.822;23.564;2022-11-20T09:48:30;-11385.09;;;16.28;100.00
10145;BME280;5113;41.822;23.564;2022-11-20T09:51:46;-11386.78;;;16.34;100.00
10145;BME280;5113;41.822;23.564;2022-11-20T09:54:56;-11389.19;;;16.43;100.00
10145;BME280;5113;41.822;23.564;2022-11-20T09:58:07;-11399.19;;;16.79;100.00
10145;BME280;5113;41.822;23.564;2022-11-20T10:01:19;-11393.00;;;16.57;100.00
10145;BME280;5113;41.822;23.564;2022-11-20T10:04:28;-11386.09;;;16.32;100.00
10145;BME280;5113;41.822;23.564;2022-11-20T10:07:44;-11387.91;;;16.38;100.00
10145;BME280;5113;41.822;23.564;2022-11-20T10:10:58;-11380.31;;;16.11;100.00
10145;BME280;5113;41.822;23.564;2022-11-20T10:14:16;-11383.41;;;16.22;100.00
10145;BME280;5113;41.822;23.564;2022-11-20T10:17:41;-11383.28;;;16.22;100.00
10145;BME280;5113;41.822;23.564;2022-11-20T10:20:58;-11383.84;;;16.24;100.00
10145;BME280;5113;41.822;23.564;2022-11-20T10:24:42;-11385.25;;;16.29;100.00
10145;BME280;5113;41.822;23.564;2022-11-20T10:31:30;-11380.19;;;16.10;100.00
10145;BME280;5113;41.822;23.564;2022-11-20T10:34:46;-11383.84;;;16.24;100.00
10145;BME280;5113;41.822;23.564;2022-11-20T10:37:58;-11383.97;;;16.24;100.00
10145;BME280;5113;41.822;23.564;2022-11-20T10:41:06;-11380.47;;;16.11;100.00
10145;BME280;5113;41.822;23.564;2022-11-20T10:44:34;-11377.22;;;16.00;100.00
10145;BME280;5113;41.822;23.564;2022-11-20T10:48:11;-11381.44;;;16.15;100.00
10145;BME280;5113;41.822;23.564;2022-11-20T10:51:30;-11380.31;;;16.11;100.00
10145;BME280;5113;41.822;23.564;2022-11-20T10:54:43;-11375.09;;;15.92;100.00
10145;BME280;5113;41.822;23.564;2022-11-20T10:57:56;-11378.06;;;16.03;100.00
10145;BME280;5113;41.822;23.564;2022-11-20T11:01:14;-11372.44;;;15.82;100.00
10145;BME280;5113;41.822;23.564;2022-11-20T11:04:33;-11376.50;;;15.97;100.00
10145;BME280;5113;41.822;23.564;2022-11-20T11:07:42;-11375.66;;;15.94;100.00
10145;BME280;5113;41.822;23.564;2022-11-20T11:10:51;-11376.66;;;15.98;100.00
10145;BME280;5113;41.822;23.564;2022-11-20T11:14:05;-11380.59;;;16.12;100.00
10145;BME280;5113;41.822;23.564;2022-11-20T11:17:27;-11379.31;;;16.07;100.00
10145;BME280;5113;41.822;23.564;2022-11-20T11:20:35;-11377.63;;;16.01;100.00
10145;BME280;5113;41.822;23.564;2022-11-20T11:23:42;-11378.91;;;16.06;100.00
10145;BME280;5113;41.822;23.564;2022-11-20T11:26:55;-11374.97;;;15.92;100.00
10145;BME280;5113;41.822;23.564;2022-11-20T11:30:14;-11373.00;;;15.84;100.00
10145;BME280;5113;41.822;23.564;2022-11-20T11:33:22;-11373.84;;;15.88;100.00
10145;BME280;5113;41.822;23.564;2022-11-20T11:36:30;-11367.63;;;15.65;100.00
10145;BME280;5113;41.822;23.564;2022-11-20T11:39:40;-11373.28;;;15.85;100.00
10145;BME280;5113;41.822;23.564;2022-11-20T11:42:53;-11366.50;;;15.61;100.00
10145;BME280;5113;41.822;23.564;2022-11-20T11:46:00;-11368.19;;;15.67;100.00
10145;BME280;5113;41.822;23.564;2022-11-20T11:49:16;-11362.56;;;15.47;100.00
10145;BME280;5113;41.822;23.564;2022-11-20T11:52:25;-11359.47;;;15.36;100.00
10145;BME280;5113;41.822;23.564;2022-11-20T11:55:36;-11355.38;;;15.21;100.00
10145;BME280;5113;41.822;23.564;2022-11-20T11:58:45;-11356.22;;;15.24;100.00
10145;BME280;5113;41.822;23.564;2022-11-20T12:01:55;-11349.59;;;15.00;100.00
10145;BME280;5113;41.822;23.564;2022-11-20T12:05:13;-11350.03;;;15.02;100.00
10145;BME280;5113;41.822;23.564;2022-11-20T12:08:27;-11345.94;;;14.87;100.00
10145;BME280;5113;41.822;23.564;2022-11-20T12:11:43;-11346.22;;;14.88;100.00
10145;BME280;5113;41.822;23.564;2022-11-20T12:14:53;-11346.09;;;14.88;100.00
10145;BME280;5113;41.822;23.564;2022-11-20T12:18:01;-11349.03;;;14.98;100.00
10145;BME280;5113;41.822;23.564;2022-11-20T12:21:17;-11344.66;;;14.82;100.00
10145;BME280;5113;41.822;23.564;2022-11-20T12:24:44;-11344.97;;;14.83;100.00
10145;BME280;5113;41.822;23.564;2022-11-20T12:28:13;-11341.16;;;14.70;100.00
10145;BME280;5113;41.822;23.564;2022-11-20T12:31:45;-11340.59;;;14.68;100.00
10145;BME280;5113;41.822;23.564;2022-11-20T12:35:01;-11338.75;;;14.61;100.00
10145;BME280;5113;41.822;23.564;2022-11-20T12:38:33;-11345.09;;;14.84;100.00
10145;BME280;5113;41.822;23.564;2022-11-20T12:42:00;-11334.66;;;14.46;100.00
10145;BME280;5113;41.822;23.564;2022-11-20T12:45:46;-11335.50;;;14.49;100.00
10145;BME280;5113;41.822;23.564;2022-11-20T12:49:08;-11337.78;;;14.58;100.00
10145;BME280;5113;41.822;23.564;2022-11-20T12:52:25;-11340.03;;;14.66;100.00
10145;BME280;5113;41.822;23.564;2022-11-20T12:55:44;-11338.34;;;14.60;100.00
10145;BME280;5113;41.822;23.564;2022-11-20T12:59:05;-11341.84;;;14.72;100.00
10145;BME280;5113;41.822;23.564;2022-11-20T13:02:22;-11343.25;;;14.77;100.00
10145;BME280;5113;41.822;23.564;2022-11-20T13:05:37;-11344.25;;;14.81;100.00
10145;BME280;5113;41.822;23.564;2022-11-20T13:08:53;-11345.66;;;14.86;100.00
10145;BME280;5113;41.822;23.564;2022-11-20T13:12:05;-11348.75;;;14.97;100.00
10145;BME280;5113;41.822;23.564;2022-11-20T13:15:26;-11346.78;;;14.90;100.00
10145;BME280;5113;41.822;23.564;2022-11-20T13:18:39;-11347.34;;;14.92;100.00
10145;BME280;5113;41.822;23.564;2022-11-20T13:21:48;-11339.75;;;14.65;100.00
10145;BME280;5113;41.822;23.564;2022-11-20T13:24:55;-11340.88;;;14.69;100.00
10145;BME280;5113;41.822;23.564;2022-11-20T13:28:04;-11344.81;;;14.83;100.00
10145;BME280;5113;41.822;23.564;2022-11-20T13:31:34;-11340.03;;;14.66;100.00
10145;BME280;5113;41.822;23.564;2022-11-20T13:34:51;-11333.69;;;14.43;100.00
10145;BME280;5113;41.822;23.564;2022-11-20T13:38:04;-11339.59;;;14.64;100.00
10145;BME280;5113;41.822;23.564;2022-11-20T13:41:11;-11335.66;;;14.50;100.00
10145;BME280;5113;41.822;23.564;2022-11-20T13:44:37;-11332.13;;;14.37;100.00
10145;BME280;5113;41.822;23.564;2022-11-20T13:47:49;-11327.63;;;14.21;100.00
10145;BME280;5113;41.822;23.564;2022-11-20T13:51:21;-11330.16;;;14.30;100.00
10145;BME280;5113;41.822;23.564;2022-11-20T13:54:54;-11326.38;;;14.16;100.00
10145;BME280;5113;41.822;23.564;2022-11-20T13:58:31;-11323.13;;;14.05;100.00
10145;BME280;5113;41.822;23.564;2022-11-20T14:01:43;-11320.03;;;13.94;100.00
10145;BME280;5113;41.822;23.564;2022-11-20T14:04:54;-11318.75;;;13.89;100.00
10145;BME280;5113;41.822;23.564;2022-11-20T14:08:03;-11316.78;;;13.82;100.00
10145;BME280;5113;41.822;23.564;2022-11-20T14:11:16;-11312.56;;;13.67;100.00
10145;BME280;5113;41.822;23.564;2022-11-20T14:14:25;-11306.78;;;13.46;100.00
10145;BME280;5113;41.822;23.564;2022-11-20T14:17:34;-11315.38;;;13.77;100.00
10145;BME280;5113;41.822;23.564;2022-11-20T14:20:43;-11315.81;;;13.78;100.00
10145;BME280;5113;41.822;23.564;2022-11-20T14:23:52;-11307.91;;;13.50;100.00
10145;BME280;5113;41.822;23.564;2022-11-20T14:26:59;-11308.06;;;13.50;100.00
10145;BME280;5113;41.822;23.564;2022-11-20T14:30:12;-11311.28;;;13.62;100.00
10145;BME280;5113;41.822;23.564;2022-11-20T14:33:20;-11308.91;;;13.53;100.00
10145;BME280;5113;41.822;23.564;2022-11-20T14:36:31;-11307.50;;;13.48;100.00
10145;BME280;5113;41.822;23.564;2022-11-20T14:39:41;-11310.59;;;13.60;100.00
10145;BME280;5113;41.822;23.564;2022-11-20T14:42:47;-11310.31;;;13.59;100.00
10145;BME280;5113;41.822;23.564;2022-11-20T14:45:58;-11309.47;;;13.55;100.00
10145;BME280;5113;41.822;23.564;2022-11-20T14:49:05;-11311.72;;;13.64;100.00
10145;BME280;5113;41.822;23.564;2022-11-20T14:52:14;-11309.03;;;13.54;100.00
10145;BME280;5113;41.822;23.564;2022-11-20T14:55:30;-11296.66;;;13.09;100.00
10145;BME280;5113;41.822;23.564;2022-11-20T14:58:37;-11297.78;;;13.13;100.00
10145;BME280;5113;41.822;23.564;2022-11-20T15:01:54;-11299.19;;;13.18;100.00
10145;BME280;5113;41.822;23.564;2022-11-20T15:05:02;-11300.59;;;13.24;100.00
10145;BME280;5113;41.822;23.564;2022-11-20T15:08:10;-11296.66;;;13.09;100.00
10145;BME280;5113;41.822;23.564;2022-11-20T15:11:20;-11303.13;;;13.33;100.00
10145;BME280;5113;41.822;23.564;2022-11-20T15:14:30;-11306.22;;;13.44;100.00
10145;BME280;5113;41.822;23.564;2022-11-20T15:17:38;-11303.41;;;13.34;100.00
10145;BME280;5113;41.822;23.564;2022-11-20T15:20:47;-11305.53;;;13.41;100.00
10145;BME280;5113;41.822;23.564;2022-11-20T15:23:55;-11306.22;;;13.44;100.00
10145;BME280;5113;41.822;23.564;2022-11-20T15:27:02;-11309.59;;;13.56;100.00
10145;BME280;5113;41.822;23.564;2022-11-20T15:30:13;-11305.66;;;13.42;100.00
10145;BME280;5113;41.822;23.564;2022-11-20T15:33:20;-11310.03;;;13.58;100.00
10145;BME280;5113;41.822;23.564;2022-11-20T15:36:26;-11316.38;;;13.80;100.00
10145;BME280;5113;41.822;23.564;2022-11-20T15:39:34;-11317.78;;;13.85;100.00
10145;BME280;5113;41.822;23.564;2022-11-20T15:42:40;-11315.25;;;13.76;100.00
10145;BME280;5113;41.822;23.564;2022-11-20T15:46:15;-11310.88;;;13.61;100.00
10145;BME280;5113;41.822;23.564;2022-11-20T15:49:22;-11301.59;;;13.27;100.00
10145;BME280;5113;41.822;23.564;2022-11-20T15:52:30;-11311.72;;;13.64;100.00
10145;BME280;5113;41.822;23.564;2022-11-20T15:55:50;-11312.28;;;13.66;100.00
10145;BME280;5113;41.822;23.564;2022-11-20T15:58:57;-11321.72;;;14.00;100.00
10145;BME280;5113;41.822;23.564;2022-11-20T16:02:07;-11323.41;;;14.06;100.00
10145;BME280;5113;41.822;23.564;2022-11-20T16:05:22;-11325.09;;;14.12;100.00
10145;BME280;5113;41.822;23.564;2022-11-20T16:08:29;-11318.91;;;13.89;100.00
10145;BME280;5113;41.822;23.564;2022-11-20T16:11:37;-11323.41;;;14.06;100.00
10145;BME280;5113;41.822;23.564;2022-11-20T16:14:43;-11324.81;;;14.11;100.00
10145;BME280;5113;41.822;23.564;2022-11-20T16:18:08;-11320.59;;;13.96;100.00
10145;BME280;5113;41.822;23.564;2022-11-20T16:21:16;-11328.34;;;14.24;100.00
10145;BME280;5113;41.822;23.564;2022-11-20T16:24:22;-11313.13;;;13.69;100.00